Time;durP1;ratioP1;P1;durP2;ratioP2;P2;SDS_P1;SDS_P2;PMS_P1;PMS_P2;Temp;Humidity;BMP_temperature;BMP_pressure;BME280_temperature;BME280_humidity;BME280_pressure;Samples;Min_cycle;Max_cycle;Signal;HPM_P1;HPM_P2
2022/07/28 00:00:18;;;;;;;1.80;1.30;;;;;;;14.71;49.84;101171.97;5111973;28;20065;-28
2022/07/28 00:02:43;;;;;;;2.33;1.48;;;;;;;14.67;50.06;101180.91;5111516;28;20047;-29
2022/07/28 00:05:09;;;;;;;1.67;1.33;;;;;;;14.65;50.06;101174.78;5112303;28;20070;-28
2022/07/28 00:07:34;;;;;;;1.23;1.10;;;;;;;14.63;50.43;101181.88;5093659;28;20453;-28
2022/07/28 00:10:00;;;;;;;2.70;1.92;;;;;;;14.54;50.12;101184.69;5111832;28;20039;-28
2022/07/28 00:12:25;;;;;;;2.22;1.55;;;;;;;14.52;50.02;101175.88;5093779;28;20027;-28
2022/07/28 00:14:50;;;;;;;2.55;1.52;;;;;;;14.47;50.21;101182.13;5093255;28;20051;-28
2022/07/28 00:17:16;;;;;;;1.70;1.60;;;;;;;14.41;50.04;101187.56;5111703;28;20020;-28
2022/07/28 00:19:41;;;;;;;1.73;1.30;;;;;;;14.37;49.91;101177.88;5114563;28;20031;-28
2022/07/28 00:22:06;;;;;;;3.15;1.45;;;;;;;14.36;49.91;101184.09;5115790;28;20024;-28
2022/07/28 00:24:32;;;;;;;3.33;1.88;;;;;;;14.37;50.30;101183.19;5115470;28;20031;-28
2022/07/28 00:26:58;;;;;;;1.50;1.40;;;;;;;14.37;50.20;101186.72;5116145;28;20481;-28
2022/07/28 00:29:24;;;;;;;3.58;1.58;;;;;;;14.31;50.03;101178.88;5080649;28;20121;-28
2022/07/28 00:31:49;;;;;;;4.68;1.95;;;;;;;14.18;49.70;101178.22;5115785;28;20102;-28
2022/07/28 00:34:15;;;;;;;3.75;1.70;;;;;;;14.10;49.83;101175.66;5115197;28;20015;-28
2022/07/28 00:36:40;;;;;;;4.10;1.58;;;;;;;14.09;49.99;101187.19;5115546;28;20031;-28
2022/07/28 00:39:05;;;;;;;2.10;1.55;;;;;;;14.08;50.45;101179.25;5115602;28;20076;-28
2022/07/28 00:41:31;;;;;;;1.83;1.73;;;;;;;14.04;50.22;101173.09;5115359;28;20031;-28
2022/07/28 00:43:56;;;;;;;3.80;1.98;;;;;;;14.02;50.64;101180.22;5097115;28;20107;-28
2022/07/28 00:46:22;;;;;;;1.40;1.30;;;;;;;13.95;50.28;101174.16;5115242;28;20031;-28
2022/07/28 00:48:52;;;;;;;5.30;1.77;;;;;;;13.98;50.80;101175.88;5115702;28;20023;-28
2022/07/28 00:51:20;;;;;;;2.53;1.50;;;;;;;13.99;51.34;101172.31;5115306;28;20346;-28
2022/07/28 00:53:45;;;;;;;2.53;1.48;;;;;;;13.95;51.57;101174.16;5096911;28;20027;-28
2022/07/28 00:56:11;;;;;;;1.70;1.60;;;;;;;13.85;51.21;101172.53;5115207;28;20027;-28
2022/07/28 00:58:38;;;;;;;5.07;1.55;;;;;;;13.82;51.33;101167.25;5115321;28;20463;-28
2022/07/28 01:01:05;;;;;;;3.42;1.60;;;;;;;13.81;51.57;101171.69;5115106;28;20023;-28
2022/07/28 01:03:32;;;;;;;2.20;1.50;;;;;;;13.66;51.39;101178.09;5112649;28;20053;-28
2022/07/28 01:06:10;;;;;;;3.20;1.63;;;;;;;13.64;51.48;101184.31;5094844;28;20020;-28
2022/07/28 01:08:47;;;;;;;1.50;1.40;;;;;;;13.60;51.52;101179.06;5095092;28;20031;-28
2022/07/28 01:11:47;;;;;;;2.42;1.58;;;;;;;13.59;51.39;101184.38;5094738;28;20286;-28
2022/07/28 01:14:28;;;;;;;1.50;1.40;;;;;;;13.49;51.38;101182.72;5076123;28;20557;-28
2022/07/28 01:17:00;;;;;;;1.92;1.73;;;;;;;13.43;51.41;101186.31;5076007;28;20525;-28
2022/07/28 01:19:58;;;;;;;1.58;1.48;;;;;;;13.40;51.64;101187.22;5076110;28;20077;-28
2022/07/28 01:22:27;;;;;;;1.75;1.60;;;;;;;13.35;51.68;101176.69;5068163;28;20032;-28
2022/07/28 01:25:17;;;;;;;3.35;1.50;;;;;;;13.34;51.64;101182.03;5093857;28;20035;-28
2022/07/28 01:27:42;;;;;;;1.50;1.40;;;;;;;13.33;51.81;101185.53;5096136;28;20032;-28
2022/07/28 01:30:24;;;;;;;2.33;1.50;;;;;;;13.27;51.64;101197.09;5113753;28;20107;-28
2022/07/28 01:32:57;;;;;;;2.22;1.52;;;;;;;13.27;51.71;101197.09;5114465;28;20318;-27
2022/07/28 01:35:25;;;;;;;4.03;1.70;;;;;;;13.21;51.73;101187.44;5096037;28;20482;-28
2022/07/28 01:37:53;;;;;;;3.83;1.73;;;;;;;13.16;52.05;101189.28;5096470;28;20027;-28
2022/07/28 01:40:22;;;;;;;2.00;1.63;;;;;;;13.16;51.85;101193.69;5113980;28;20070;-29
2022/07/28 01:42:50;;;;;;;3.70;2.38;;;;;;;13.11;51.81;101188.47;5113952;28;20516;-28
2022/07/28 01:45:17;;;;;;;2.15;1.60;;;;;;;13.09;51.73;101182.31;5114157;28;20032;-29
2022/07/28 01:47:44;;;;;;;3.13;1.70;;;;;;;13.06;52.12;101187.63;5095687;28;20092;-28
2022/07/28 01:50:11;;;;;;;3.22;1.85;;;;;;;13.03;52.19;101185.00;5095877;28;20027;-28
2022/07/28 01:52:37;;;;;;;2.45;1.90;;;;;;;13.03;51.88;101187.66;5095621;28;20041;-25
2022/07/28 01:55:04;;;;;;;3.13;1.60;;;;;;;13.00;52.49;101187.72;5095820;28;20548;-29
2022/07/28 01:57:31;;;;;;;2.95;1.60;;;;;;;12.94;52.55;101184.22;5113543;28;20400;-29
2022/07/28 01:59:58;;;;;;;3.47;2.00;;;;;;;12.93;52.42;101179.81;5095875;28;20020;-29
2022/07/28 02:02:26;;;;;;;2.00;1.48;;;;;;;12.90;52.75;101185.16;5095851;28;20023;-28
2022/07/28 02:04:52;;;;;;;1.77;1.45;;;;;;;12.89;52.31;101179.88;5113663;28;20023;-28
2022/07/28 02:07:19;;;;;;;2.17;1.80;;;;;;;12.85;52.81;101179.03;5095330;28;20043;-28
2022/07/28 02:09:46;;;;;;;1.67;1.15;;;;;;;12.85;52.53;101172.84;5095504;28;20030;-29
2022/07/28 02:12:12;;;;;;;2.03;1.80;;;;;;;12.80;52.94;101181.72;5113610;28;20028;-28
2022/07/28 02:14:38;;;;;;;1.40;1.30;;;;;;;12.77;52.78;101175.59;5095075;28;20020;-28
2022/07/28 02:17:09;;;;;;;2.13;1.70;;;;;;;12.75;52.96;101172.97;5095019;28;20039;-29
2022/07/28 02:19:36;;;;;;;1.73;1.60;;;;;;;12.74;52.83;101171.19;5095178;28;20038;-28
2022/07/28 02:22:03;;;;;;;2.22;1.60;;;;;;;12.74;53.26;101175.63;5113809;28;20038;-27
2022/07/28 02:24:29;;;;;;;1.80;1.70;;;;;;;12.71;53.17;101171.25;5095203;28;20027;-28
2022/07/28 02:27:00;;;;;;;2.05;1.50;;;;;;;12.68;52.90;101176.56;5094889;28;20055;-28
2022/07/28 02:29:27;;;;;;;3.53;1.70;;;;;;;12.66;53.30;101173.94;5095077;28;20031;-29
2022/07/28 02:32:01;;;;;;;3.17;1.70;;;;;;;12.67;52.60;101180.09;5077732;28;20058;-28
2022/07/28 02:34:26;;;;;;;4.47;2.13;;;;;;;12.65;53.09;101188.06;5113108;28;20035;-29
2022/07/28 02:36:55;;;;;;;2.97;1.75;;;;;;;12.62;53.21;101182.78;5077937;28;20015;-29
2022/07/28 02:39:24;;;;;;;2.03;1.70;;;;;;;12.61;52.75;101188.09;5094554;28;20034;-27
2022/07/28 02:41:54;;;;;;;2.08;1.70;;;;;;;12.57;53.24;101180.19;5112177;28;20027;-29
2022/07/28 02:44:26;;;;;;;2.20;1.80;;;;;;;12.56;53.51;101189.00;5094489;28;20462;-29
2022/07/28 02:46:52;;;;;;;2.70;1.85;;;;;;;12.55;53.52;101191.66;5094978;28;20122;-29
2022/07/28 02:49:22;;;;;;;2.22;1.63;;;;;;;12.52;53.46;101187.28;5113097;28;20107;-28
2022/07/28 02:51:50;;;;;;;1.73;1.63;;;;;;;12.51;53.43;101189.94;5112738;28;20027;-28
2022/07/28 02:54:17;;;;;;;3.67;1.80;;;;;;;12.50;53.41;101183.75;5094561;28;20032;-28
2022/07/28 02:56:46;;;;;;;2.58;1.90;;;;;;;12.50;53.44;101181.13;5112722;28;20031;-28
2022/07/28 02:59:11;;;;;;;3.00;2.13;;;;;;;12.49;53.55;101189.06;5112765;28;20028;-29
2022/07/28 03:01:37;;;;;;;10.55;2.45;;;;;;;12.45;53.74;101188.22;5094393;28;20088;-28
2022/07/28 03:04:02;;;;;;;1.85;1.52;;;;;;;12.43;53.94;101192.66;5112422;28;20029;-29
2022/07/28 03:06:28;;;;;;;4.20;2.38;;;;;;;12.42;53.73;101189.16;5093862;28;20118;-28
2022/07/28 03:08:53;;;;;;;2.90;2.40;;;;;;;12.40;54.01;101197.97;5094301;28;20023;-28
2022/07/28 03:11:18;;;;;;;2.85;1.73;;;;;;;12.40;53.56;101192.66;5094177;28;20027;-28
2022/07/28 03:13:44;;;;;;;3.10;1.90;;;;;;;12.38;54.25;101200.66;5112178;28;20103;-28
2022/07/28 03:16:09;;;;;;;5.47;1.80;;;;;;;12.39;53.86;101202.38;5112420;28;20030;-28
2022/07/28 03:18:35;;;;;;;2.42;1.88;;;;;;;12.36;53.93;101204.16;5094037;28;20030;-29
2022/07/28 03:21:00;;;;;;;2.83;1.80;;;;;;;12.34;54.09;101204.19;5093884;28;20284;-28
2022/07/28 03:23:30;;;;;;;2.58;1.90;;;;;;;12.33;54.21;101207.72;5112200;28;20497;-28
2022/07/28 03:26:00;;;;;;;2.58;1.92;;;;;;;12.33;53.86;101213.00;5076920;28;20039;-28
2022/07/28 03:28:26;;;;;;;2.25;2.05;;;;;;;12.30;54.03;101218.31;5094088;28;20027;-28
2022/07/28 03:30:56;;;;;;;3.22;1.90;;;;;;;12.29;54.19;101211.28;5094058;28;20080;-28
2022/07/28 03:33:22;;;;;;;2.85;1.77;;;;;;;12.27;53.91;101213.94;5111923;28;20027;-28
2022/07/28 03:35:50;;;;;;;2.78;1.92;;;;;;;12.27;54.32;101213.06;5094171;28;20023;-28
2022/07/28 03:38:20;;;;;;;3.83;1.88;;;;;;;12.27;54.14;101213.06;5111747;28;20019;-28
2022/07/28 03:40:47;;;;;;;3.33;1.98;;;;;;;12.25;54.58;101220.13;5093603;28;20111;-29
2022/07/28 03:43:13;;;;;;;4.00;2.03;;;;;;;12.24;54.60;101218.38;5111863;28;20559;-28
2022/07/28 03:45:40;;;;;;;3.95;2.30;;;;;;;12.22;54.16;101210.47;5093673;28;20031;-28
2022/07/28 03:48:05;;;;;;;2.83;1.80;;;;;;;12.21;54.46;101213.09;5111796;28;20020;-29
2022/07/28 03:50:32;;;;;;;3.67;2.13;;;;;;;12.23;54.00;101213.94;5111955;28;20019;-28
2022/07/28 03:52:58;;;;;;;3.35;1.77;;;;;;;12.18;54.24;101229.88;5111251;28;20037;-28
2022/07/28 03:55:24;;;;;;;5.53;2.90;;;;;;;12.15;54.13;101225.50;5112125;28;20043;-29
2022/07/28 03:57:50;;;;;;;2.95;1.73;;;;;;;12.16;54.04;101223.72;5111969;28;20027;-28
2022/07/28 04:00:16;;;;;;;5.22;2.42;;;;;;;12.15;54.34;101225.50;5111869;28;20024;-29
2022/07/28 04:02:42;;;;;;;2.25;1.70;;;;;;;12.15;54.00;101225.50;5111637;28;20034;-29
2022/07/28 04:05:17;;;;;;;3.90;1.88;;;;;;;12.15;54.29;101224.59;5112067;28;20046;-28
2022/07/28 04:07:44;;;;;;;4.32;2.22;;;;;;;12.13;54.65;101224.63;5111674;28;20034;-29
2022/07/28 04:10:13;;;;;;;3.55;2.20;;;;;;;12.14;54.53;101222.84;5093520;28;20019;-28
2022/07/28 04:12:49;;;;;;;9.10;2.40;;;;;;;12.14;54.48;101220.22;5111650;28;20088;-29
2022/07/28 04:15:15;;;;;;;3.55;1.70;;;;;;;12.14;54.17;101215.78;5111767;28;20043;-28
2022/07/28 04:17:41;;;;;;;1.95;1.70;;;;;;;12.17;54.54;101212.25;5111511;28;20470;-29
2022/07/28 04:20:07;;;;;;;3.13;2.10;;;;;;;12.15;54.70;101209.63;5111618;28;20100;-29
2022/07/28 04:22:32;;;;;;;3.63;1.95;;;;;;;12.17;54.84;101213.13;5093478;28;20027;-28
2022/07/28 04:24:58;;;;;;;2.00;1.90;;;;;;;12.19;54.81;101206.06;5111567;28;20062;-28
2022/07/28 04:27:23;;;;;;;2.65;1.95;;;;;;;12.22;54.29;101198.97;5111668;28;20100;-28
2022/07/28 04:29:48;;;;;;;3.53;1.95;;;;;;;12.22;54.56;101201.63;5093153;28;20403;-29
2022/07/28 04:32:13;;;;;;;2.33;1.92;;;;;;;12.27;54.92;101202.50;5111804;28;20476;-28
2022/07/28 04:34:39;;;;;;;3.40;2.15;;;;;;;12.31;55.17;101209.50;5111559;28;20055;-28
2022/07/28 04:37:04;;;;;;;10.85;2.15;;;;;;;12.35;54.89;101211.25;5111175;28;20031;-28
2022/07/28 04:39:29;;;;;;;2.45;2.25;;;;;;;12.38;55.06;101221.81;5111852;28;20022;-28
2022/07/28 04:41:55;;;;;;;2.92;1.80;;;;;;;12.41;55.05;101216.47;5111427;28;20076;-28
2022/07/28 04:44:21;;;;;;;2.97;1.60;;;;;;;12.45;55.32;101212.91;5111552;28;20028;-28
2022/07/28 04:46:46;;;;;;;2.20;1.90;;;;;;;12.45;54.67;101215.53;5093079;28;20020;-28
2022/07/28 04:49:11;;;;;;;3.20;2.08;;;;;;;12.52;54.50;101226.09;5111601;28;20441;-29
2022/07/28 04:51:37;;;;;;;3.15;1.75;;;;;;;12.57;55.14;101219.88;5092952;28;20030;-28
2022/07/28 04:54:02;;;;;;;3.33;1.80;;;;;;;12.56;54.77;101214.59;5093120;28;20023;-29
2022/07/28 04:56:28;;;;;;;2.22;2.03;;;;;;;12.58;54.50;101223.41;5093213;28;20026;-28
2022/07/28 04:58:53;;;;;;;1.83;1.40;;;;;;;12.63;54.53;101223.34;5111012;28;20038;-28
2022/07/28 05:01:20;;;;;;;3.45;1.98;;;;;;;12.68;54.91;101214.47;5111090;28;20027;-29
2022/07/28 05:03:46;;;;;;;4.35;2.17;;;;;;;12.80;55.58;101217.88;5092981;28;20077;-28
2022/07/28 05:06:11;;;;;;;3.10;1.77;;;;;;;12.80;54.90;101212.59;5113117;28;20031;-28
2022/07/28 05:08:36;;;;;;;2.15;1.52;;;;;;;12.82;55.11;101211.72;5115099;28;20024;-28
2022/07/28 05:11:01;;;;;;;2.13;1.90;;;;;;;12.87;54.98;101222.22;5114840;28;20110;-28
2022/07/28 05:13:27;;;;;;;1.83;1.60;;;;;;;12.94;55.32;101223.94;5114268;28;20047;-29
2022/07/28 05:15:52;;;;;;;1.83;1.48;;;;;;;12.99;54.71;101225.66;5115051;28;20028;-28
2022/07/28 05:18:17;;;;;;;1.98;1.77;;;;;;;13.08;55.32;101222.94;5096555;28;20028;-27
2022/07/28 05:20:43;;;;;;;1.98;1.73;;;;;;;13.15;54.92;101224.63;5114568;28;20023;-28
2022/07/28 05:23:10;;;;;;;2.38;1.67;;;;;;;13.22;54.72;101230.72;5114539;28;20024;-28
2022/07/28 05:25:36;;;;;;;1.92;1.73;;;;;;;13.28;54.73;101225.34;5114509;28;20039;-28
2022/07/28 05:28:02;;;;;;;3.15;1.73;;;;;;;13.33;55.21;101225.28;5114085;28;20024;-28
2022/07/28 05:30:28;;;;;;;2.80;2.10;;;;;;;13.38;54.54;101226.13;5114379;28;20038;-28
2022/07/28 05:32:57;;;;;;;4.68;2.03;;;;;;;13.49;54.77;101227.78;5114690;28;20020;-28
2022/07/28 05:35:23;;;;;;;3.65;1.60;;;;;;;13.50;54.37;101222.47;5114607;28;20019;-28
2022/07/28 05:37:49;;;;;;;1.48;1.30;;;;;;;13.60;54.98;101231.16;5114322;28;20039;-28
2022/07/28 05:40:14;;;;;;;3.38;1.50;;;;;;;13.58;55.12;101233.84;5114186;28;20096;-29
2022/07/28 05:42:41;;;;;;;2.35;1.70;;;;;;;13.67;55.44;101232.00;5114185;28;20023;-28
2022/07/28 05:45:07;;;;;;;2.60;2.00;;;;;;;13.73;55.39;101232.78;5114160;28;20023;-27
2022/07/28 05:47:45;;;;;;;3.75;1.83;;;;;;;13.80;55.71;101230.03;5114227;28;20023;-28
2022/07/28 05:50:12;;;;;;;5.15;1.77;;;;;;;13.82;55.56;101225.59;5114078;28;20488;-28
2022/07/28 05:52:37;;;;;;;2.53;2.00;;;;;;;13.87;56.34;101233.50;5095673;28;20065;-28
2022/07/28 05:55:05;;;;;;;5.18;2.08;;;;;;;13.91;56.95;101240.50;5095664;28;20019;-27
2022/07/28 05:57:30;;;;;;;2.72;2.10;;;;;;;13.94;56.37;101238.66;5078612;28;20035;-28
2022/07/28 05:59:55;;;;;;;4.22;2.13;;;;;;;13.99;56.09;101238.63;5095421;28;20395;-27
2022/07/28 06:02:21;;;;;;;2.70;2.17;;;;;;;14.02;56.72;101238.56;5114130;28;20444;-28
2022/07/28 06:04:46;;;;;;;2.17;1.98;;;;;;;14.06;55.92;101234.09;5113598;28;20494;-28
2022/07/28 06:07:11;;;;;;;2.78;2.13;;;;;;;14.13;55.79;101226.94;5113895;28;20569;-28
2022/07/28 06:09:37;;;;;;;3.10;2.00;;;;;;;14.15;56.49;101231.31;5095398;28;20494;-28
2022/07/28 06:12:02;;;;;;;4.05;2.25;;;;;;;14.19;56.19;101235.66;5113767;28;20034;-28
2022/07/28 06:14:28;;;;;;;3.03;2.20;;;;;;;14.23;56.23;101237.38;5113585;28;20150;-28
2022/07/28 06:16:53;;;;;;;4.18;2.17;;;;;;;14.27;55.94;101237.34;5113327;28;20028;-28
2022/07/28 06:19:18;;;;;;;2.22;1.75;;;;;;;14.29;56.39;101236.41;5113306;28;20031;-28
2022/07/28 06:21:44;;;;;;;3.55;1.90;;;;;;;14.33;56.25;101238.09;5113390;28;20076;-28
2022/07/28 06:24:09;;;;;;;2.30;1.67;;;;;;;14.39;56.02;101241.53;5113019;28;20059;-28
2022/07/28 06:26:38;;;;;;;5.72;2.40;;;;;;;14.41;56.59;101248.59;5113343;28;20114;-26
2022/07/28 06:29:04;;;;;;;3.13;2.50;;;;;;;14.43;56.61;101244.13;5078609;28;20114;-28
2022/07/28 06:31:30;;;;;;;3.28;2.00;;;;;;;14.50;55.97;101240.47;5113342;28;20103;-28
2022/07/28 06:33:55;;;;;;;4.10;1.90;;;;;;;14.57;57.00;101240.41;5113241;28;20440;-28
2022/07/28 06:36:20;;;;;;;4.72;2.30;;;;;;;14.64;56.53;101236.69;5113048;28;20033;-28
2022/07/28 06:38:46;;;;;;;5.53;2.05;;;;;;;14.71;56.31;101233.03;5113034;28;20058;-28
2022/07/28 06:41:11;;;;;;;6.47;2.45;;;;;;;14.77;56.58;101236.50;5113019;28;20023;-28
2022/07/28 06:43:36;;;;;;;2.67;2.22;;;;;;;14.85;56.15;101239.94;5112758;28;20034;-28
2022/07/28 06:46:02;;;;;;;3.97;2.17;;;;;;;14.91;56.95;101244.25;5112903;28;20038;-28
2022/07/28 06:48:27;;;;;;;8.27;2.72;;;;;;;14.96;56.33;101240.63;5112950;28;20118;-28
2022/07/28 06:50:52;;;;;;;5.07;2.65;;;;;;;15.05;56.84;101244.00;5112725;28;20106;-28
2022/07/28 06:53:18;;;;;;;4.20;2.72;;;;;;;15.13;57.06;101236.75;5112838;28;20034;-28
2022/07/28 06:55:43;;;;;;;6.35;3.13;;;;;;;15.21;56.76;101236.63;5094679;28;20058;-28
2022/07/28 06:58:08;;;;;;;4.88;3.17;;;;;;;15.28;56.05;101235.59;5112725;28;20147;-29
2022/07/28 07:00:34;;;;;;;4.25;2.50;;;;;;;15.36;55.63;101238.09;5112791;28;20098;-30
2022/07/28 07:02:59;;;;;;;3.92;2.55;;;;;;;15.46;56.23;101237.00;5111986;28;20085;-30
2022/07/28 07:05:27;;;;;;;8.35;2.83;;;;;;;15.53;55.89;101227.09;5103985;28;20063;-29
2022/07/28 07:07:52;;;;;;;6.93;2.72;;;;;;;15.63;55.56;101233.09;5112424;28;20023;-29
2022/07/28 07:10:17;;;;;;;3.28;2.97;;;;;;;15.73;55.66;101229.34;5094381;28;20034;-30
2022/07/28 07:12:43;;;;;;;3.88;2.50;;;;;;;15.83;55.42;101234.44;5112300;28;20039;-27
2022/07/28 07:15:09;;;;;;;5.65;2.40;;;;;;;15.94;55.38;101220.94;5094503;28;20016;-30
2022/07/28 07:17:36;;;;;;;6.38;2.30;;;;;;;16.05;55.39;101223.38;5111737;28;20062;-30
2022/07/28 07:20:02;;;;;;;6.60;2.78;;;;;;;16.13;55.51;101216.97;5094459;28;20066;-30
2022/07/28 07:22:27;;;;;;;4.20;2.40;;;;;;;16.23;55.19;101214.94;5112559;28;20028;-30
2022/07/28 07:24:53;;;;;;;2.55;2.30;;;;;;;16.35;55.10;101220.88;5112291;28;20026;-30
2022/07/28 07:27:18;;;;;;;2.90;2.17;;;;;;;16.47;54.99;101222.38;5111956;28;20095;-30
2022/07/28 07:29:43;;;;;;;5.40;2.05;;;;;;;16.59;54.82;101222.06;5111967;28;20028;-29
2022/07/28 07:32:09;;;;;;;5.32;2.28;;;;;;;16.71;54.60;101215.56;5111953;28;20024;-29
2022/07/28 07:34:34;;;;;;;2.53;1.67;;;;;;;16.82;54.55;101215.25;5111868;28;20041;-29
2022/07/28 07:36:59;;;;;;;3.17;1.77;;;;;;;16.91;54.47;101214.13;5112062;28;20026;-27
2022/07/28 07:39:25;;;;;;;3.75;2.10;;;;;;;17.01;54.13;101215.63;5112111;28;20023;-29
2022/07/28 07:41:50;;;;;;;4.65;1.85;;;;;;;17.16;54.02;101224.13;5111996;28;20047;-30
2022/07/28 07:44:15;;;;;;;5.55;1.98;;;;;;;17.33;53.97;101220.13;5112124;28;20032;-29
2022/07/28 07:46:41;;;;;;;3.15;1.85;;;;;;;17.45;53.47;101217.09;5111812;28;20489;-30
2022/07/28 07:49:06;;;;;;;4.80;1.77;;;;;;;17.57;53.86;101214.06;5111872;28;20071;-29
2022/07/28 07:51:31;;;;;;;2.80;1.70;;;;;;;17.72;53.44;101214.53;5111805;28;20047;-28
2022/07/28 07:53:57;;;;;;;3.25;1.70;;;;;;;17.86;53.03;101214.09;5093639;28;20023;-30
2022/07/28 07:56:22;;;;;;;2.83;1.60;;;;;;;17.95;52.86;101202.28;5104045;28;20055;-30
2022/07/28 07:58:48;;;;;;;5.13;2.13;;;;;;;18.13;52.76;101200.84;5091490;28;20383;-29
2022/07/28 08:01:14;;;;;;;2.00;1.40;;;;;;;18.31;52.33;101209.16;5091362;28;20102;-30
2022/07/28 08:03:39;;;;;;;3.95;1.60;;;;;;;18.40;52.74;101207.97;5091264;28;20095;-29
2022/07/28 08:06:04;;;;;;;3.03;1.50;;;;;;;18.54;52.88;101204.84;5091539;28;20495;-30
2022/07/28 08:08:30;;;;;;;3.03;1.60;;;;;;;18.69;52.49;101207.00;5091623;28;20047;-29
2022/07/28 08:10:55;;;;;;;4.55;2.08;;;;;;;18.84;52.53;101208.25;5091450;28;20499;-28
2022/07/28 08:13:21;;;;;;;2.17;1.40;;;;;;;18.98;51.95;101204.22;5091567;28;20521;-30
2022/07/28 08:15:47;;;;;;;2.90;1.35;;;;;;;19.08;51.36;101216.31;5091474;28;20097;-29
2022/07/28 08:18:12;;;;;;;3.05;1.65;;;;;;;19.22;50.59;101201.59;5091054;28;20032;-29
2022/07/28 08:20:38;;;;;;;8.90;2.40;;;;;;;19.38;51.06;101188.53;5091218;28;20157;-29
2022/07/28 08:23:03;;;;;;;3.72;1.50;;;;;;;19.55;50.09;101187.88;5090978;28;20472;-29
2022/07/28 08:25:28;;;;;;;2.80;1.23;;;;;;;19.66;50.05;101194.59;5091406;28;20491;-29
2022/07/28 08:27:53;;;;;;;3.83;1.35;;;;;;;19.69;50.90;101194.47;5090842;28;20642;-29
2022/07/28 08:30:19;;;;;;;2.67;1.77;;;;;;;19.83;50.39;101194.81;5091205;28;20024;-29
2022/07/28 08:32:45;;;;;;;2.63;1.42;;;;;;;19.98;49.83;101187.94;5090996;28;20540;-29
2022/07/28 08:35:10;;;;;;;4.13;1.23;;;;;;;20.04;49.24;101192.22;5091278;28;20415;-30
2022/07/28 08:37:38;;;;;;;3.05;1.77;;;;;;;20.21;49.99;101194.19;5104956;28;20034;-29
2022/07/28 08:40:05;;;;;;;3.80;1.67;;;;;;;20.31;50.13;101194.69;5113579;28;20055;-30
2022/07/28 08:42:38;;;;;;;3.65;1.60;;;;;;;20.49;48.96;101195.75;5097117;28;20437;-30
2022/07/28 08:45:05;;;;;;;2.25;1.48;;;;;;;20.58;49.06;101186.41;5115423;28;20027;-30
2022/07/28 08:47:31;;;;;;;2.90;1.50;;;;;;;20.80;48.50;101198.88;5115150;28;20027;-29
2022/07/28 08:49:59;;;;;;;1.30;0.95;;;;;;;20.98;48.66;101196.38;5097254;28;20434;-29
2022/07/28 08:52:28;;;;;;;1.50;1.25;;;;;;;21.02;47.61;101197.97;5115675;28;20019;-29
2022/07/28 08:54:55;;;;;;;4.03;1.60;;;;;;;21.18;48.38;101191.91;5114956;28;20259;-29
2022/07/28 08:57:31;;;;;;;3.95;1.60;;;;;;;21.31;47.87;101198.47;5115425;28;20090;-29
2022/07/28 08:59:57;;;;;;;2.40;1.35;;;;;;;21.41;47.11;101194.38;5096762;28;20019;-29
2022/07/28 09:02:27;;;;;;;2.97;1.30;;;;;;;21.59;48.49;101183.75;5115312;28;20358;-29
2022/07/28 09:04:54;;;;;;;2.97;1.65;;;;;;;21.70;46.89;101196.63;5115059;28;20039;-29
2022/07/28 09:07:19;;;;;;;4.30;1.27;;;;;;;21.83;48.10;101191.56;5097021;28;20118;-30
2022/07/28 09:09:47;;;;;;;6.93;1.83;;;;;;;21.91;46.67;101175.09;5096645;28;20107;-30
2022/07/28 09:12:13;;;;;;;3.72;1.48;;;;;;;22.04;46.78;101184.28;5114918;28;20069;-30
2022/07/28 09:14:38;;;;;;;5.32;1.73;;;;;;;22.15;46.69;101177.50;5114722;28;20019;-30
2022/07/28 09:17:03;;;;;;;4.00;1.35;;;;;;;22.29;46.91;101184.88;5114674;28;20019;-30
2022/07/28 09:19:29;;;;;;;3.13;1.38;;;;;;;22.37;46.50;101182.66;5114703;28;20076;-30
2022/07/28 09:21:55;;;;;;;2.75;1.83;;;;;;;22.54;47.77;101179.09;5096419;28;20077;-30
2022/07/28 09:24:34;;;;;;;3.30;1.70;;;;;;;22.64;46.62;101179.53;5114495;28;20487;-30
2022/07/28 09:27:06;;;;;;;3.20;1.27;;;;;;;22.77;46.78;101176.22;5096049;28;20051;-30
2022/07/28 09:29:33;;;;;;;2.65;1.42;;;;;;;22.93;45.63;101182.50;5114515;28;20024;-30
2022/07/28 09:31:58;;;;;;;3.65;1.40;;;;;;;23.00;44.83;101176.78;5096310;28;20619;-30
2022/07/28 09:34:24;;;;;;;2.00;1.38;;;;;;;23.15;45.18;101173.28;5095813;28;20035;-30
2022/07/28 09:36:50;;;;;;;1.15;1.08;;;;;;;23.24;45.47;101171.03;5079095;28;20065;-30
2022/07/28 09:39:29;;;;;;;2.53;1.60;;;;;;;23.37;44.36;101168.56;5096460;28;20101;-30
2022/07/28 09:41:54;;;;;;;2.28;1.33;;;;;;;23.51;44.98;101168.63;5079074;28;20023;-30
2022/07/28 09:44:21;;;;;;;3.75;1.23;;;;;;;23.64;43.81;101167.97;5095785;28;20065;-30
2022/07/28 09:46:47;;;;;;;4.47;1.23;;;;;;;23.74;43.63;101181.78;5114493;28;20020;-30
2022/07/28 09:49:12;;;;;;;1.83;1.35;;;;;;;23.86;43.35;101173.00;5096215;28;20032;-30
2022/07/28 09:51:37;;;;;;;4.05;1.60;;;;;;;23.97;43.48;101164.28;5095297;28;20360;-30
2022/07/28 09:54:11;;;;;;;1.80;1.33;;;;;;;24.10;44.08;101164.41;5113834;28;20076;-30
2022/07/28 09:56:38;;;;;;;3.45;1.30;;;;;;;24.20;42.77;101164.78;5096271;28;20024;-30
2022/07/28 09:59:03;;;;;;;3.63;1.42;;;;;;;24.28;42.42;101167.03;5114324;28;20026;-30
2022/07/28 10:01:29;;;;;;;1.98;1.10;;;;;;;24.35;42.21;101163.00;5114251;28;20028;-30
2022/07/28 10:03:56;;;;;;;1.80;1.35;;;;;;;24.48;42.29;101164.00;5113979;28;20038;-29
2022/07/28 10:06:30;;;;;;;3.20;1.15;;;;;;;24.59;42.32;101170.56;5095738;28;20059;-30
2022/07/28 10:08:58;;;;;;;2.75;1.25;;;;;;;24.65;42.18;101156.72;5114370;28;20028;-30
2022/07/28 10:11:28;;;;;;;1.23;0.90;;;;;;;24.69;42.64;101152.88;5113713;28;20027;-30
2022/07/28 10:13:57;;;;;;;2.97;1.30;;;;;;;24.77;43.52;101154.22;5113672;28;20023;-29
2022/07/28 10:16:24;;;;;;;1.67;1.10;;;;;;;24.87;41.73;101150.00;5113326;28;20034;-29
2022/07/28 10:18:50;;;;;;;2.03;1.20;;;;;;;24.92;41.78;101145.22;5113538;28;20030;-30
2022/07/28 10:21:17;;;;;;;3.22;1.50;;;;;;;25.02;41.32;101141.94;5095346;28;20027;-30
2022/07/28 10:23:54;;;;;;;1.00;0.82;;;;;;;25.08;41.35;101144.25;5113109;28;20500;-29
2022/07/28 10:26:30;;;;;;;2.97;1.02;;;;;;;25.16;41.27;101131.13;5107773;28;20569;-30
2022/07/28 10:28:55;;;;;;;1.58;1.10;;;;;;;25.17;40.57;101140.94;5093301;28;20111;-30
2022/07/28 10:31:39;;;;;;;2.17;1.13;;;;;;;25.15;40.40;101140.19;5091663;28;20099;-30
2022/07/28 10:34:08;;;;;;;1.85;1.17;;;;;;;25.15;39.85;101134.81;5074552;28;20020;-30
2022/07/28 10:36:34;;;;;;;4.30;1.30;;;;;;;25.19;39.80;101127.38;5097974;28;20502;-30
2022/07/28 10:39:06;;;;;;;2.25;1.30;;;;;;;25.16;39.55;101141.91;5095067;28;20119;-29
2022/07/28 10:41:38;;;;;;;4.63;1.42;;;;;;;25.22;41.00;101124.47;5094836;28;20049;-29
2022/07/28 10:44:04;;;;;;;2.92;1.20;;;;;;;25.30;40.28;101132.94;5094868;28;20248;-30
2022/07/28 10:46:30;;;;;;;2.03;1.38;;;;;;;25.34;39.00;101122.81;5112621;28;20382;-29
2022/07/28 10:48:57;;;;;;;2.88;1.00;;;;;;;25.48;39.33;101130.88;5113201;28;20019;-29
2022/07/28 10:51:22;;;;;;;2.67;1.27;;;;;;;25.58;40.02;101127.63;5113373;28;20031;-30
2022/07/28 10:53:52;;;;;;;3.13;0.98;;;;;;;25.66;40.13;101116.28;5094365;28;20019;-29
2022/07/28 10:56:37;;;;;;;5.53;1.40;;;;;;;25.64;39.22;101123.63;5094809;28;20027;-29
2022/07/28 10:59:14;;;;;;;3.13;1.60;;;;;;;25.61;38.48;101120.16;5094639;28;20027;-30
2022/07/28 11:01:40;;;;;;;4.15;1.13;;;;;;;25.69;39.67;101121.50;5112543;28;20033;-29
2022/07/28 11:04:06;;;;;;;3.47;1.05;;;;;;;25.75;39.08;101116.53;5111690;28;20100;-30
2022/07/28 11:06:35;;;;;;;2.20;1.55;;;;;;;25.87;39.50;101119.38;5112835;28;20028;-29
2022/07/28 11:09:21;;;;;;;2.08;1.05;;;;;;;25.98;38.34;101108.72;5112276;28;20077;-29
2022/07/28 11:11:49;;;;;;;1.60;1.50;;;;;;;26.04;38.08;101114.69;5112949;28;20024;-29
2022/07/28 11:14:42;;;;;;;1.45;1.35;;;;;;;26.07;38.31;101117.19;5112448;28;20023;-29
2022/07/28 11:17:07;;;;;;;2.38;1.10;;;;;;;26.14;38.24;101115.78;5112310;28;20031;-29
2022/07/28 11:19:44;;;;;;;4.57;1.63;;;;;;;26.26;38.68;101114.94;5112418;28;20023;-30
2022/07/28 11:22:17;;;;;;;3.38;1.70;;;;;;;26.41;38.25;101117.59;5112461;28;20080;-30
2022/07/28 11:25:05;;;;;;;1.70;1.52;;;;;;;26.41;37.62;101106.78;5111935;28;20042;-30